Time;durP1;ratioP1;P1;durP2;ratioP2;P2;SDS_P1;SDS_P2;PMS_P1;PMS_P2;Temp;Humidity;BMP_temperature;BMP_pressure;BME280_temperature;BME280_humidity;BME280_pressure;Samples;Min_cycle;Max_cycle;Signal;HPM_P1;HPM_P2
2021/12/02 00:02:03;;;;;;;5.60;2.13;;;;;;;13.87;50.63;99671.66;5053868;28;20021;-57
2021/12/02 00:04:31;;;;;;;7.10;2.50;;;;;;;13.87;50.38;99674.34;5053897;28;20024;-57
2021/12/02 00:06:56;;;;;;;4.32;2.45;;;;;;;13.88;51.32;99678.69;5053767;28;20025;-57
2021/12/02 00:09:22;;;;;;;4.68;2.55;;;;;;;13.86;50.31;99670.81;5053519;28;20025;-57
2021/12/02 00:11:47;;;;;;;6.70;2.22;;;;;;;13.82;51.00;99664.09;5053619;28;20049;-58
2021/12/02 00:14:15;;;;;;;2.95;2.45;;;;;;;13.81;51.72;99672.34;5047698;28;20029;-57
2021/12/02 00:16:53;;;;;;;6.13;2.67;;;;;;;13.80;51.35;99667.97;5042415;28;20494;-57
2021/12/02 00:22:03;;;;;;;5.15;2.65;;;;;;;13.82;50.29;99676.69;5042414;28;20044;-57
2021/12/02 00:24:36;;;;;;;4.55;2.65;;;;;;;13.82;51.19;99690.16;5041328;28;20025;-57
2021/12/02 00:27:06;;;;;;;;;;;;;;;13.84;50.89;99697.06;5025943;28;20030;-57
2021/12/02 00:29:33;;;;;;;4.63;1.75;;;;;;;13.85;50.31;99692.50;5042512;28;19915;-57
2021/12/02 00:32:05;;;;;;;4.30;2.22;;;;;;;13.85;50.39;99687.13;5042744;28;20024;-57
2021/12/02 00:34:32;;;;;;;2.63;2.35;;;;;;;13.80;51.07;99689.50;5043107;28;20064;-57
2021/12/02 00:36:58;;;;;;;3.85;2.53;;;;;;;13.82;50.21;99688.31;5042728;28;20104;-57
2021/12/02 00:39:24;;;;;;;8.05;2.92;;;;;;;13.84;50.86;99690.84;5042577;28;20059;-57
2021/12/02 00:41:50;;;;;;;4.70;2.67;;;;;;;13.82;50.78;99687.47;5043439;28;20020;-57
2021/12/02 00:44:18;;;;;;;5.78;2.13;;;;;;;13.74;51.11;99674.06;5040999;28;20036;-57
2021/12/02 00:46:45;;;;;;;4.07;2.15;;;;;;;13.83;51.04;99689.16;5044607;28;20028;-57
2021/12/02 00:49:13;;;;;;;3.20;2.20;;;;;;;13.81;50.94;99701.97;5041428;28;20351;-57
2021/12/02 00:51:40;;;;;;;6.72;2.15;;;;;;;13.80;51.08;99686.81;5039903;28;20363;-57
2021/12/02 00:54:08;;;;;;;3.83;1.88;;;;;;;13.79;50.28;99693.25;5034125;28;20064;-57
2021/12/02 00:56:34;;;;;;;7.07;2.10;;;;;;;13.75;50.72;99692.75;5033867;28;20054;-57
2021/12/02 00:59:02;;;;;;;3.47;1.70;;;;;;;13.76;50.72;99683.63;5032394;28;20033;-57
2021/12/02 01:01:34;;;;;;;4.50;2.42;;;;;;;13.74;50.42;99690.22;5033537;28;20026;-57
2021/12/02 01:04:07;;;;;;;7.30;2.30;;;;;;;13.73;50.68;99688.56;5033769;28;20026;-57
2021/12/02 01:06:32;;;;;;;3.05;1.60;;;;;;;13.71;50.75;99696.78;5032403;28;20080;-57
2021/12/02 01:08:58;;;;;;;3.90;1.60;;;;;;;13.74;50.27;99700.97;5032278;28;20033;-57
2021/12/02 01:11:24;;;;;;;2.83;1.67;;;;;;;13.72;50.20;99700.31;5033585;28;20021;-57
2021/12/02 01:13:49;;;;;;;4.55;2.13;;;;;;;13.71;51.22;99701.31;5032299;28;20036;-57
2021/12/02 01:16:16;;;;;;;2.88;1.98;;;;;;;13.71;50.07;99701.31;5033684;28;20084;-57
2021/12/02 01:18:41;;;;;;;3.63;2.35;;;;;;;13.72;51.23;99703.03;5033732;28;20017;-57
2021/12/02 01:21:08;;;;;;;4.68;2.08;;;;;;;13.71;51.15;99701.31;5033479;28;20034;-58
2021/12/02 01:23:34;;;;;;;4.22;1.95;;;;;;;13.72;50.72;99703.88;5033293;28;20067;-57
2021/12/02 01:26:03;;;;;;;2.33;1.80;;;;;;;13.72;51.99;99703.03;5032182;28;20022;-57
2021/12/02 01:28:30;;;;;;;3.30;2.13;;;;;;;13.73;50.65;99712.78;5033462;28;20109;-57
2021/12/02 01:30:56;;;;;;;2.63;1.58;;;;;;;13.71;50.66;99712.94;5032205;28;20059;-57
2021/12/02 01:33:23;;;;;;;6.00;1.75;;;;;;;13.72;51.14;99711.09;5033293;28;20502;-57
2021/12/02 01:35:50;;;;;;;1.55;1.40;;;;;;;13.72;50.86;99713.78;5033335;28;20065;-57
2021/12/02 01:38:17;;;;;;;7.07;1.67;;;;;;;13.71;51.57;99712.09;5033459;28;20061;-57
2021/12/02 01:40:46;;;;;;;7.97;1.70;;;;;;;13.73;50.30;99720.84;5033172;28;20034;-57
2021/12/02 01:43:17;;;;;;;2.35;1.30;;;;;;;13.72;50.04;99716.47;5031944;28;20021;-57
2021/12/02 01:45:43;;;;;;;3.53;1.33;;;;;;;13.73;51.44;99723.53;5032086;28;20056;-57
2021/12/02 01:48:11;;;;;;;1.48;1.17;;;;;;;13.75;50.27;99729.56;5033238;28;20032;-57
2021/12/02 01:50:39;;;;;;;1.50;1.05;;;;;;;13.75;50.82;99726.88;5033266;28;20033;-57
2021/12/02 01:53:05;;;;;;;6.47;0.98;;;;;;;13.74;51.00;99722.50;5033015;28;20021;-57
2021/12/02 01:55:31;;;;;;;3.60;1.25;;;;;;;13.75;50.31;99734.97;5033048;28;20033;-57
2021/12/02 01:58:00;;;;;;;1.58;1.27;;;;;;;13.74;50.45;99727.91;5031921;28;20112;-57
2021/12/02 02:00:41;;;;;;;1.98;0.90;;;;;;;13.75;50.27;99732.28;5033115;28;20032;-57
2021/12/02 02:03:07;;;;;;;4.35;1.52;;;;;;;13.73;50.36;99726.25;5033141;28;20025;-57
2021/12/02 02:05:33;;;;;;;5.15;1.40;;;;;;;13.70;51.35;99726.59;5032997;28;20032;-57
2021/12/02 02:08:02;;;;;;;4.65;1.45;;;;;;;13.67;50.24;99721.56;5031666;28;20021;-57
2021/12/02 02:10:31;;;;;;;3.13;1.00;;;;;;;13.67;50.61;99722.41;5033144;28;20451;-57
2021/12/02 02:12:59;;;;;;;2.78;1.17;;;;;;;13.62;50.78;99718.56;5031732;28;20122;-57
2021/12/02 02:15:26;;;;;;;3.88;1.33;;;;;;;13.65;50.67;99728.97;5031956;28;20021;-57
2021/12/02 02:17:56;;;;;;;4.97;1.27;;;;;;;13.65;50.89;99728.97;5032977;28;20065;-57
2021/12/02 02:20:37;;;;;;;4.32;1.23;;;;;;;13.65;50.37;99731.66;5034389;28;20037;-57
2021/12/02 02:23:05;;;;;;;1.77;1.30;;;;;;;13.62;51.12;99723.94;5036450;28;20030;-57
2021/12/02 02:25:31;;;;;;;3.03;1.10;;;;;;;13.59;50.68;99721.59;5036366;28;20025;-57
2021/12/02 02:27:56;;;;;;;1.67;1.23;;;;;;;13.61;49.90;99728.47;5035052;28;20025;-57
2021/12/02 02:30:22;;;;;;;3.22;1.10;;;;;;;13.58;50.35;99722.59;5036183;28;20100;-57
2021/12/02 02:32:47;;;;;;;1.33;1.08;;;;;;;13.61;50.06;99733.84;5036192;28;20451;-57
2021/12/02 02:35:13;;;;;;;1.80;1.10;;;;;;;13.59;50.94;99735.06;5036053;28;20053;-57
2021/12/02 02:37:39;;;;;;;1.42;0.77;;;;;;;13.58;50.86;99733.34;5036328;28;20036;-56
2021/12/02 02:40:07;;;;;;;1.50;0.73;;;;;;;13.58;50.05;99731.50;5036286;28;20080;-57
2021/12/02 02:42:34;;;;;;;3.58;0.70;;;;;;;13.58;50.57;99733.34;5034894;28;20470;-57
2021/12/02 02:45:00;;;;;;;1.42;0.80;;;;;;;13.54;50.72;99732.88;5036059;28;20055;-57
2021/12/02 02:47:26;;;;;;;2.60;1.00;;;;;;;13.52;50.34;99732.22;5036129;28;20021;-56
2021/12/02 02:49:52;;;;;;;2.65;0.77;;;;;;;13.52;50.47;99732.22;5036253;28;20087;-57
2021/12/02 02:52:17;;;;;;;3.33;0.50;;;;;;;13.50;49.80;99741.47;5035925;28;20474;-57
2021/12/02 02:54:43;;;;;;;2.58;0.70;;;;;;;13.49;49.84;99734.41;5018415;28;20029;-56
2021/12/02 02:57:12;;;;;;;1.38;0.70;;;;;;;13.51;50.80;99743.16;5018561;28;20025;-57
2021/12/02 03:07:41;;;;;;;1.40;0.38;;;;;;;13.44;49.53;99743.00;5035677;28;20125;-57
2021/12/02 03:12:39;;;;;;;2.22;0.68;;;;;;;13.43;49.57;99729.75;5035748;28;20028;-56
2021/12/02 03:17:32;;;;;;;0.60;0.30;;;;;;;13.37;50.40;99724.03;5034609;28;20017;-57
2021/12/02 03:19:58;;;;;;;1.02;0.30;;;;;;;13.32;50.28;99723.72;5035456;28;20029;-57
2021/12/02 03:22:23;;;;;;;0.50;0.40;;;;;;;13.27;50.50;99714.50;5035513;28;20021;-57
2021/12/02 03:24:49;;;;;;;3.30;0.40;;;;;;;13.26;49.88;99720.91;5034199;28;20036;-57
2021/12/02 03:27:14;;;;;;;5.18;0.45;;;;;;;13.22;50.58;99720.41;5035340;28;20072;-58
2021/12/02 03:29:41;;;;;;;0.35;0.30;;;;;;;13.20;49.70;99725.13;5034160;28;20047;-57
2021/12/02 03:32:10;;;;;;;6.68;0.30;;;;;;;13.18;49.53;99726.28;5033922;28;20152;-57
2021/12/02 03:34:37;;;;;;;3.58;0.43;;;;;;;13.13;50.07;99724.13;5034883;28;20099;-57
2021/12/02 03:37:03;;;;;;;3.60;0.50;;;;;;;13.07;50.34;99724.81;5033984;28;20407;-57
2021/12/02 03:39:28;;;;;;;1.38;0.60;;;;;;;13.06;49.56;99725.81;5033721;28;20131;-57
2021/12/02 03:41:54;;;;;;;5.00;0.50;;;;;;;13.05;50.31;99732.19;5017067;28;20092;-57
2021/12/02 03:44:20;;;;;;;1.05;0.40;;;;;;;13.00;49.57;99734.56;5034841;28;20032;-57
2021/12/02 03:46:45;;;;;;;1.70;0.43;;;;;;;13.00;49.27;99739.09;5033815;28;20029;-57
2021/12/02 03:49:11;;;;;;;1.45;0.15;;;;;;;12.96;49.95;99735.88;5035006;28;20052;-57
2021/12/02 03:51:37;;;;;;;1.33;0.30;;;;;;;12.92;49.10;99731.88;5035185;28;20041;-57
2021/12/02 03:54:02;;;;;;;0.65;0.35;;;;;;;12.94;50.19;99737.91;5035053;28;20029;-57
2021/12/02 03:56:28;;;;;;;1.30;0.50;;;;;;;12.91;49.45;99740.94;5034749;28;20112;-56
2021/12/02 03:58:53;;;;;;;0.52;0.30;;;;;;;12.85;49.52;99738.94;5034866;28;20029;-57
2021/12/02 04:01:20;;;;;;;3.25;0.45;;;;;;;12.82;49.26;99731.22;5033588;28;20083;-57
2021/12/02 04:03:46;;;;;;;3.00;0.43;;;;;;;12.80;49.74;99734.09;5034626;28;20025;-57
2021/12/02 04:06:12;;;;;;;0.60;0.30;;;;;;;12.79;50.62;99728.84;5033611;28;20025;-57
2021/12/02 04:16:33;;;;;;;2.33;0.40;;;;;;;12.73;49.44;99732.25;5024336;28;20565;-57
2021/12/02 04:18:59;;;;;;;1.00;0.52;;;;;;;12.70;49.94;99725.34;5034427;28;20033;-57
2021/12/02 04:21:24;;;;;;;3.15;0.38;;;;;;;12.71;49.30;99723.50;5034282;28;20026;-57
2021/12/02 04:23:50;;;;;;;1.40;0.68;;;;;;;12.70;49.48;99724.53;5034284;28;20029;-58
2021/12/02 04:26:15;;;;;;;3.00;0.45;;;;;;;12.67;50.26;99728.38;5033059;28;20025;-57
2021/12/02 04:28:41;;;;;;;1.98;0.93;;;;;;;12.64;49.53;99723.38;5034078;28;20052;-57
2021/12/02 04:31:06;;;;;;;3.72;0.52;;;;;;;12.60;50.48;99724.69;5034227;28;20110;-57
2021/12/02 04:33:32;;;;;;;4.10;0.70;;;;;;;12.61;49.68;99739.81;5033940;28;20049;-57
2021/12/02 04:35:59;;;;;;;3.83;0.52;;;;;;;12.61;50.61;99739.81;5033640;28;20108;-57
2021/12/02 04:38:25;;;;;;;3.97;0.60;;;;;;;12.59;50.50;99741.00;5034467;28;20025;-57
2021/12/02 04:40:50;;;;;;;2.58;0.45;;;;;;;12.58;50.18;99734.78;5034241;28;20113;-57
2021/12/02 04:43:15;;;;;;;2.85;2.35;;;;;;;12.57;49.58;99738.47;5032307;28;20363;-57
2021/12/02 04:45:41;;;;;;;2.78;0.90;;;;;;;12.57;49.88;99745.69;5034110;28;20043;-57
2021/12/02 04:48:06;;;;;;;0.85;0.45;;;;;;;12.56;49.34;99744.00;5033856;28;20547;-57
2021/12/02 04:50:32;;;;;;;2.40;0.60;;;;;;;12.55;49.78;99736.97;5034007;28;20029;-57
2021/12/02 04:52:57;;;;;;;5.22;0.55;;;;;;;12.58;50.22;99747.38;5033835;28;20382;-57
2021/12/02 04:55:23;;;;;;;2.63;0.50;;;;;;;12.55;50.08;99739.63;5034274;28;20071;-57
2021/12/02 04:57:48;;;;;;;1.25;0.63;;;;;;;12.57;50.33;99748.38;5033776;28;20474;-57
2021/12/02 05:00:15;;;;;;;5.28;1.02;;;;;;;12.55;49.94;99745.00;5034027;28;20025;-57
2021/12/02 05:02:41;;;;;;;1.50;0.35;;;;;;;12.56;50.00;99746.69;5033933;28;20025;-57
2021/12/02 05:05:07;;;;;;;3.13;0.47;;;;;;;12.54;49.32;99754.06;5032765;28;20017;-57
2021/12/02 05:07:33;;;;;;;2.03;0.60;;;;;;;12.52;50.28;99758.78;5033672;28;20422;-57
2021/12/02 05:09:58;;;;;;;2.70;0.40;;;;;;;12.49;50.32;99759.97;5033571;28;20025;-57
2021/12/02 05:12:24;;;;;;;1.25;0.40;;;;;;;12.49;49.70;99767.16;5032404;28;20026;-57
2021/12/02 05:14:49;;;;;;;1.00;0.60;;;;;;;12.48;50.15;99765.50;5033713;28;20079;-57
2021/12/02 05:17:15;;;;;;;0.88;0.55;;;;;;;12.46;49.68;99767.50;5033735;28;20029;-56
2021/12/02 05:19:40;;;;;;;2.60;0.60;;;;;;;12.44;49.59;99772.22;5033479;28;20060;-57
2021/12/02 05:22:05;;;;;;;2.55;0.43;;;;;;;12.42;49.52;99766.16;5032078;28;20022;-57
2021/12/02 05:24:31;;;;;;;3.90;1.10;;;;;;;12.39;49.41;99771.88;5033540;28;20025;-57
2021/12/02 05:26:56;;;;;;;3.25;0.82;;;;;;;12.38;49.52;99770.19;5033541;28;20104;-57
2021/12/02 05:29:22;;;;;;;2.75;0.88;;;;;;;12.37;49.65;99763.97;5033790;28;20029;-57
2021/12/02 05:31:47;;;;;;;0.47;0.43;;;;;;;12.34;50.28;99760.81;5032754;28;20075;-56
2021/12/02 05:34:12;;;;;;;1.85;0.60;;;;;;;12.36;50.45;99766.84;5033552;28;20046;-57
2021/12/02 05:36:38;;;;;;;1.15;0.40;;;;;;;12.35;49.68;99767.81;5033737;28;20056;-57
2021/12/02 05:39:03;;;;;;;0.70;0.38;;;;;;;12.32;49.90;99763.63;5033775;28;20033;-57
2021/12/02 05:41:31;;;;;;;1.48;0.47;;;;;;;12.33;50.27;99768.00;5033236;28;20025;-57
2021/12/02 05:43:56;;;;;;;0.57;0.57;;;;;;;12.31;49.38;99763.81;5032514;28;20037;-57
2021/12/02 05:46:21;;;;;;;4.15;1.40;;;;;;;12.31;50.00;99769.19;5033521;28;20559;-57
2021/12/02 05:48:47;;;;;;;1.88;1.05;;;;;;;12.33;50.12;99761.78;5033531;28;20528;-56
2021/12/02 05:51:12;;;;;;;4.30;0.93;;;;;;;12.26;49.26;99754.41;5033425;28;20437;-57
2021/12/02 05:53:37;;;;;;;5.95;0.77;;;;;;;12.33;49.26;99767.16;5032999;28;20453;-57
2021/12/02 05:56:03;;;;;;;1.35;1.00;;;;;;;12.32;50.10;99760.09;5037299;28;20026;-57
2021/12/02 05:58:28;;;;;;;1.08;0.98;;;;;;;12.35;49.72;99759.78;5037179;28;20025;-57
2021/12/02 06:00:54;;;;;;;2.42;0.85;;;;;;;12.34;49.77;99775.03;5037267;28;20053;-57
2021/12/02 06:03:19;;;;;;;5.72;1.35;;;;;;;12.34;49.52;99779.59;5037305;28;20025;-56
2021/12/02 06:05:46;;;;;;;4.82;1.15;;;;;;;12.34;49.89;99793.84;5037248;28;20507;-57
2021/12/02 06:08:12;;;;;;;5.22;1.75;;;;;;;12.32;49.23;99797.69;5037320;28;20029;-57
2021/12/02 06:10:37;;;;;;;2.50;1.30;;;;;;;12.31;49.40;99801.41;5036895;28;20031;-57
2021/12/02 06:13:03;;;;;;;1.60;1.15;;;;;;;12.25;49.55;99797.53;5036962;28;20462;-57
2021/12/02 06:15:28;;;;;;;2.28;1.30;;;;;;;12.26;48.97;99807.25;5036841;28;20040;-57
2021/12/02 06:17:53;;;;;;;2.67;1.13;;;;;;;12.23;49.30;99805.75;5018992;28;20612;-57
2021/12/02 06:20:19;;;;;;;3.08;1.45;;;;;;;12.22;49.28;99816.66;5036671;28;20038;-57
2021/12/02 06:22:45;;;;;;;1.65;1.02;;;;;;;12.21;49.30;99823.03;5036912;28;20493;-57
2021/12/02 06:27:39;;;;;;;1.30;0.60;;;;;;;12.11;49.76;99830.38;5045923;28;20036;-57
2021/12/02 06:30:05;;;;;;;0.90;0.60;;;;;;;12.07;49.93;99832.56;5056391;28;20388;-57
2021/12/02 06:32:30;;;;;;;0.47;0.47;;;;;;;11.91;49.67;99813.72;5056625;28;20028;-57
2021/12/02 06:34:56;;;;;;;0.55;0.55;;;;;;;11.95;49.93;99823.09;5056052;28;20532;-56
2021/12/02 06:37:21;;;;;;;0.35;0.30;;;;;;;11.90;50.07;99819.22;5055953;28;20116;-56
2021/12/02 06:39:47;;;;;;;0.50;0.30;;;;;;;11.84;50.22;99826.09;5056599;28;20063;-57
2021/12/02 06:42:12;;;;;;;1.00;0.38;;;;;;;11.81;49.77;99829.09;5056207;28;20499;-57
2021/12/02 06:44:37;;;;;;;0.20;0.20;;;;;;;11.76;50.14;99831.44;5056163;28;20025;-57
2021/12/02 06:47:03;;;;;;;1.67;0.30;;;;;;;11.73;50.13;99834.44;5056206;28;20029;-57
2021/12/02 06:49:30;;;;;;;2.40;0.47;;;;;;;11.73;49.75;99839.78;5056292;28;20385;-57
2021/12/02 06:51:56;;;;;;;0.70;0.30;;;;;;;11.73;49.88;99839.78;5056158;28;20025;-57
2021/12/02 06:54:21;;;;;;;0.80;0.22;;;;;;;11.68;49.89;99842.09;5054774;28;20374;-57
2021/12/02 06:56:47;;;;;;;1.75;0.30;;;;;;;11.68;49.19;99847.44;5055981;28;20481;-57
2021/12/02 06:59:12;;;;;;;3.00;0.20;;;;;;;11.67;49.94;99851.13;5056064;28;20020;-56
2021/12/02 07:01:38;;;;;;;0.35;0.30;;;;;;;11.66;49.97;99850.31;5055683;28;20051;-57
2021/12/02 07:04:03;;;;;;;1.38;0.70;;;;;;;11.63;50.16;99849.78;5055673;28;20529;-57
2021/12/02 07:06:28;;;;;;;3.15;0.30;;;;;;;11.65;49.96;99847.78;5054227;28;20048;-57
2021/12/02 07:08:54;;;;;;;0.60;0.40;;;;;;;11.64;49.41;99854.16;5055496;28;20025;-57
2021/12/02 07:11:19;;;;;;;1.45;0.73;;;;;;;11.62;49.73;99853.44;5055667;28;20094;-57
2021/12/02 07:13:47;;;;;;;0.57;0.22;;;;;;;11.49;49.20;99839.66;5055452;28;20481;-57
2021/12/02 07:16:12;;;;;;;2.60;0.55;;;;;;;11.63;49.60;99861.34;5054351;28;20024;-57
2021/12/02 07:18:42;;;;;;;5.07;0.45;;;;;;;11.65;50.17;99863.88;5055499;28;20024;-56
2021/12/02 07:21:07;;;;;;;0.85;0.43;;;;;;;11.65;49.86;99866.53;5055176;28;20029;-57
2021/12/02 07:23:33;;;;;;;1.52;0.25;;;;;;;11.65;49.26;99861.19;5055347;28;20028;-56
2021/12/02 07:25:59;;;;;;;0.52;0.40;;;;;;;11.66;49.54;99870.91;5053963;28;20078;-57
2021/12/02 07:28:25;;;;;;;1.20;0.75;;;;;;;11.68;49.94;99875.13;5053999;28;20075;-57
2021/12/02 07:30:52;;;;;;;1.13;0.40;;;;;;;11.69;48.82;99870.63;5055479;28;20025;-57
2021/12/02 07:33:18;;;;;;;0.98;0.55;;;;;;;11.71;49.41;99874.00;5055179;28;20029;-57
2021/12/02 07:35:44;;;;;;;0.73;0.70;;;;;;;11.70;49.34;99869.63;5053874;28;20053;-57
2021/12/02 07:38:09;;;;;;;0.57;0.57;;;;;;;11.74;50.08;99875.50;5055784;28;20448;-57
2021/12/02 07:40:36;;;;;;;3.65;0.80;;;;;;;11.79;49.81;99879.41;5055249;28;20021;-57
2021/12/02 07:43:02;;;;;;;2.35;0.60;;;;;;;11.83;49.25;99883.47;5055350;28;20079;-57
2021/12/02 07:45:31;;;;;;;2.38;0.60;;;;;;;11.86;49.83;99883.13;5055120;28;20037;-57
2021/12/02 07:47:58;;;;;;;1.55;1.00;;;;;;;11.85;49.37;99889.50;5054831;28;20029;-56
2021/12/02 07:50:23;;;;;;;2.05;0.98;;;;;;;11.87;49.61;99890.16;5053571;28;20032;-56
2021/12/02 07:52:53;;;;;;;1.08;0.93;;;;;;;11.86;49.23;99899.25;5054874;28;20017;-57
2021/12/02 07:55:21;;;;;;;5.07;1.13;;;;;;;11.88;48.63;99897.22;5054708;28;20021;-57
2021/12/02 07:57:47;;;;;;;2.38;0.70;;;;;;;11.94;49.44;99901.97;5054761;28;20021;-57
2021/12/02 08:00:15;;;;;;;4.55;1.20;;;;;;;11.99;49.86;99906.84;5053527;28;20109;-57
2021/12/02 08:02:50;;;;;;;1.77;1.27;;;;;;;12.01;49.51;99908.34;5054863;28;20533;-57
2021/12/02 08:05:16;;;;;;;3.00;1.48;;;;;;;12.03;49.47;99916.25;5054817;28;20504;-57
2021/12/02 08:07:44;;;;;;;2.35;1.65;;;;;;;11.95;49.09;99908.97;5054918;28;20021;-57
2021/12/02 08:10:11;;;;;;;4.32;1.77;;;;;;;12.02;49.00;99939.56;5037179;28;20466;-57
2021/12/02 08:12:37;;;;;;;2.65;1.75;;;;;;;11.97;49.32;99944.56;5054672;28;20523;-58
2021/12/02 08:15:06;;;;;;;2.63;1.27;;;;;;;11.83;49.72;99942.47;5054176;28;20025;-59
2021/12/02 08:17:32;;;;;;;2.15;1.33;;;;;;;11.66;49.85;99948.72;5053998;28;20029;-62
2021/12/02 08:19:57;;;;;;;2.05;1.35;;;;;;;11.42;50.14;99954.72;5036442;28;20174;-62
2021/12/02 08:22:23;;;;;;;1.75;1.20;;;;;;;11.29;50.32;99964.19;5052821;28;20021;-59
2021/12/02 08:24:49;;;;;;;3.25;0.70;;;;;;;11.15;50.11;99978.13;5054300;28;20599;-59
2021/12/02 08:27:15;;;;;;;2.20;0.60;;;;;;;10.95;49.74;99966.72;5054199;28;20393;-58
2021/12/02 08:29:42;;;;;;;4.13;0.45;;;;;;;10.88;50.31;99961.16;5053910;28;20021;-58
2021/12/02 08:32:09;;;;;;;0.30;0.30;;;;;;;10.79;49.61;99962.06;5054325;28;20039;-57
2021/12/02 08:34:35;;;;;;;0.57;0.50;;;;;;;10.73;50.12;99970.69;5052751;28;20414;-57
2021/12/02 08:37:00;;;;;;;0.60;0.55;;;;;;;10.72;50.57;99963.63;5054318;28;20017;-57
2021/12/02 08:39:28;;;;;;;2.17;0.40;;;;;;;10.71;50.44;99975.34;5054010;28;20065;-57
2021/12/02 08:41:55;;;;;;;0.98;0.45;;;;;;;10.73;50.62;99977.88;5052612;28;20441;-57
2021/12/02 08:44:22;;;;;;;0.38;0.20;;;;;;;10.73;50.76;99983.22;5036149;28;20052;-57
2021/12/02 08:46:49;;;;;;;1.20;0.47;;;;;;;10.79;50.69;99996.03;5054054;28;20104;-57
2021/12/02 08:49:15;;;;;;;4.47;0.70;;;;;;;10.80;50.31;99995.88;5052817;28;20027;-57
2021/12/02 08:51:41;;;;;;;1.25;0.88;;;;;;;10.79;50.69;100002.22;5036092;28;20020;-57
2021/12/02 08:54:07;;;;;;;0.95;0.82;;;;;;;10.76;50.24;99989.13;5053696;28;20074;-57
2021/12/02 08:56:33;;;;;;;0.93;0.88;;;;;;;10.85;49.49;99993.59;5054004;28;20029;-56
2021/12/02 08:58:59;;;;;;;1.52;1.05;;;;;;;10.88;49.81;99987.94;5053983;28;20021;-56
2021/12/02 09:01:25;;;;;;;0.80;0.80;;;;;;;10.88;49.60;99992.44;5053445;28;20024;-57
2021/12/02 09:03:51;;;;;;;1.58;1.27;;;;;;;10.89;50.09;99989.59;5053495;28;20175;-57
2021/12/02 09:06:21;;;;;;;3.00;1.00;;;;;;;10.98;50.20;99999.41;5035833;28;20119;-57
2021/12/02 09:08:46;;;;;;;2.25;1.00;;;;;;;10.95;49.96;99989.00;5053797;28;20473;-57
2021/12/02 09:11:12;;;;;;;0.80;0.70;;;;;;;11.01;50.33;99999.13;5053695;28;20032;-56
2021/12/02 09:13:37;;;;;;;2.97;0.85;;;;;;;11.08;50.02;100005.53;5053613;28;20061;-57
2021/12/02 09:16:03;;;;;;;1.90;0.50;;;;;;;11.15;50.12;100011.13;5053436;28;20028;-57
2021/12/02 09:18:28;;;;;;;2.33;0.68;;;;;;;11.16;49.86;100001.25;5053720;28;20033;-57
2021/12/02 09:20:54;;;;;;;0.90;0.70;;;;;;;11.28;50.20;100013.44;5053662;28;20420;-57
2021/12/02 09:23:19;;;;;;;4.82;0.60;;;;;;;11.34;50.45;100016.34;5053406;28;20396;-56
2021/12/02 09:25:45;;;;;;;0.70;0.70;;;;;;;11.35;50.27;100011.81;5053268;28;20541;-57
2021/12/02 09:28:11;;;;;;;4.68;0.80;;;;;;;11.54;49.47;100022.38;5053388;28;20032;-57
2021/12/02 09:30:37;;;;;;;2.17;0.73;;;;;;;11.67;49.88;100025.47;5056981;28;20021;-57
2021/12/02 09:33:02;;;;;;;0.75;0.75;;;;;;;11.84;49.24;100030.00;5056531;28;20051;-56
2021/12/02 09:35:28;;;;;;;1.20;1.10;;;;;;;11.84;49.60;100030.00;5057399;28;20064;-57
2021/12/02 09:37:53;;;;;;;5.28;1.63;;;;;;;11.87;49.39;100029.69;5039865;28;20489;-56
2021/12/02 09:40:19;;;;;;;1.50;0.68;;;;;;;11.93;50.20;100033.59;5057378;28;20025;-56
2021/12/02 09:42:45;;;;;;;5.10;0.88;;;;;;;12.02;49.73;100035.34;5057327;28;20021;-57
2021/12/02 09:45:12;;;;;;;3.05;1.23;;;;;;;12.15;49.83;100031.22;5057090;28;20028;-57
2021/12/02 09:47:40;;;;;;;2.15;1.13;;;;;;;12.68;48.56;100033.66;5057134;28;20496;-56
2021/12/02 09:50:12;;;;;;;2.08;1.65;;;;;;;13.39;46.99;100042.13;5057491;28;20378;-56
2021/12/02 09:52:40;;;;;;;7.47;1.20;;;;;;;13.67;48.10;100044.50;5057545;28;20028;-56
2021/12/02 09:55:10;;;;;;;1.38;1.10;;;;;;;13.82;46.96;100032.00;5057002;28;20025;-56
2021/12/02 09:57:40;;;;;;;3.00;0.88;;;;;;;14.15;48.31;100040.91;5057338;28;20028;-56
2021/12/02 10:00:07;;;;;;;2.85;0.98;;;;;;;14.29;47.38;100034.81;5057323;28;20436;-57
2021/12/02 10:02:40;;;;;;;0.80;0.80;;;;;;;14.22;48.60;100042.75;5057198;28;20112;-56
2021/12/02 10:05:07;;;;;;;4.40;1.33;;;;;;;14.18;48.14;100046.78;5057001;28;20036;-56
2021/12/02 10:07:42;;;;;;;1.58;0.75;;;;;;;14.35;47.84;100050.34;5057237;28;20044;-56
2021/12/02 10:12:41;;;;;;;2.20;0.77;;;;;;;15.70;45.58;100039.00;5057246;28;20025;-56
2021/12/02 10:15:12;;;;;;;2.47;1.08;;;;;;;16.18;45.21;100037.69;5056799;28;20071;-57
2021/12/02 10:17:41;;;;;;;3.13;0.80;;;;;;;16.52;45.93;100034.47;5055934;28;20047;-56
2021/12/02 10:23:04;;;;;;;0.47;0.40;;;;;;;15.92;46.75;100041.81;5056686;28;20385;-57
2021/12/02 10:25:31;;;;;;;3.50;0.85;;;;;;;15.64;46.86;100042.41;5055677;28;20075;-57
2021/12/02 10:28:08;;;;;;;1.23;0.77;;;;;;;15.78;45.44;100039.94;5055634;28;20115;-57
2021/12/02 10:30:34;;;;;;;2.08;0.40;;;;;;;15.60;45.48;100038.41;5056084;28;20533;-56
2021/12/02 10:33:00;;;;;;;2.78;0.45;;;;;;;15.45;46.26;100039.31;5055657;28;20527;-56
2021/12/02 10:35:45;;;;;;;2.70;0.63;;;;;;;15.38;46.92;100044.59;5056674;28;20057;-57
2021/12/02 10:38:35;;;;;;;3.28;0.70;;;;;;;15.43;47.29;100047.63;5056585;28;20037;-57
2021/12/02 10:41:04;;;;;;;4.20;0.88;;;;;;;15.18;47.02;100043.38;5055905;28;20020;-56
2021/12/02 10:43:29;;;;;;;0.50;0.50;;;;;;;14.87;46.59;100039.84;5055555;28;20036;-56
2021/12/02 10:46:16;;;;;;;5.60;0.52;;;;;;;14.64;46.81;100039.78;5055313;28;20029;-57
2021/12/02 10:48:52;;;;;;;1.50;0.82;;;;;;;14.62;47.61;100040.97;5055242;28;20070;-57
2021/12/02 10:51:39;;;;;;;3.13;0.77;;;;;;;14.39;47.40;100030.09;5056413;28;20175;-57
2021/12/02 10:54:13;;;;;;;3.10;0.60;;;;;;;14.22;47.14;100034.66;5056242;28;20025;-57
2021/12/02 10:56:43;;;;;;;1.10;0.68;;;;;;;14.17;47.44;100030.81;5056044;28;20032;-57
2021/12/02 10:59:25;;;;;;;0.80;0.52;;;;;;;14.06;46.61;100040.09;5055005;28;20371;-57
2021/12/02 11:01:52;;;;;;;1.58;0.60;;;;;;;13.89;47.17;100043.81;5055290;28;20033;-57
2021/12/02 11:04:18;;;;;;;2.00;0.68;;;;;;;13.74;47.61;100045.47;5055912;28;20025;-56
2021/12/02 11:06:45;;;;;;;1.75;0.70;;;;;;;13.70;47.67;100054.91;5055948;28;20400;-56
2021/12/02 11:09:24;;;;;;;5.72;0.60;;;;;;;13.64;47.29;100050.19;5055933;28;20017;-57
2021/12/02 11:12:13;;;;;;;0.52;0.52;;;;;;;13.40;47.72;100057.25;5056076;28;20029;-57
2021/12/02 11:15:01;;;;;;;0.63;0.63;;;;;;;13.21;46.82;100062.06;5037966;28;20409;-57
2021/12/02 11:17:30;;;;;;;2.38;0.50;;;;;;;13.12;48.13;100071.97;5054678;28;20047;-57
2021/12/02 11:19:56;;;;;;;1.92;0.70;;;;;;;13.03;47.67;100067.56;5055819;28;20021;-57
2021/12/02 11:22:23;;;;;;;0.95;0.80;;;;;;;13.00;47.13;100065.19;5054297;28;20541;-56
2021/12/02 11:24:49;;;;;;;1.45;0.77;;;;;;;12.98;47.41;100074.44;5055169;28;20063;-57
2021/12/02 11:27:19;;;;;;;2.30;0.82;;;;;;;12.87;47.72;100066.66;5055039;28;20021;-57
2021/12/02 11:29:52;;;;;;;0.95;0.82;;;;;;;12.84;47.63;100079.41;5054426;28;20043;-57
2021/12/02 11:32:36;;;;;;;0.88;0.88;;;;;;;12.73;47.42;100077.00;5055443;28;20021;-57
2021/12/02 11:35:14;;;;;;;1.15;1.00;;;;;;;12.76;47.21;100082.06;5053858;28;20045;-56
2021/12/02 11:37:43;;;;;;;2.08;0.80;;;;;;;12.78;46.70;100087.28;5055179;28;20408;-57
2021/12/02 11:40:16;;;;;;;0.95;0.95;;;;;;;12.82;47.96;100091.34;5055248;28;20037;-57
2021/12/02 11:42:42;;;;;;;1.75;0.85;;;;;;;12.85;46.69;100099.06;5055386;28;20021;-57
2021/12/02 11:45:09;;;;;;;2.58;0.90;;;;;;;12.77;46.87;100099.88;5055411;28;20036;-57
2021/12/02 11:47:35;;;;;;;0.90;0.90;;;;;;;12.73;47.00;100111.94;5055030;28;20389;-57
2021/12/02 11:50:02;;;;;;;2.10;0.90;;;;;;;12.72;47.83;100112.97;5054851;28;20025;-57
2021/12/02 11:52:28;;;;;;;1.33;1.02;;;;;;;12.62;48.22;100104.16;5052730;28;20035;-57
2021/12/02 11:54:55;;;;;;;1.08;1.00;;;;;;;12.59;47.61;100107.16;5053598;28;20099;-57
2021/12/02 11:57:21;;;;;;;1.75;1.20;;;;;;;12.67;47.42;100103.72;5053544;28;20021;-57
2021/12/02 11:59:46;;;;;;;3.72;0.98;;;;;;;12.73;47.32;100108.44;5053622;28;20044;-57
2021/12/02 12:02:16;;;;;;;2.33;0.85;;;;;;;12.85;47.40;100102.59;5054665;28;20051;-57
2021/12/02 12:04:52;;;;;;;4.68;0.90;;;;;;;13.13;47.48;100095.19;5054808;28;20029;-57